sensor_id;sensor_type;location;lat;lon;timestamp;temperature;humidity
46336;DHT22;31365;48.858;8.530;2022-11-04T00:02:11;11.60;99.90
46336;DHT22;31365;48.858;8.530;2022-11-04T00:04:39;11.60;99.90
46336;DHT22;31365;48.858;8.530;2022-11-04T00:07:07;11.50;99.90
46336;DHT22;31365;48.858;8.530;2022-11-04T00:09:50;11.50;99.90
46336;DHT22;31365;48.858;8.530;2022-11-04T00:12:19;11.50;99.90
46336;DHT22;31365;48.858;8.530;2022-11-04T00:14:54;11.50;99.90
46336;DHT22;31365;48.858;8.530;2022-11-04T00:17:42;11.50;99.90
46336;DHT22;31365;48.858;8.530;2022-11-04T00:20:10;11.50;99.90
46336;DHT22;31365;48.858;8.530;2022-11-04T00:22:56;11.50;99.90
46336;DHT22;31365;48.858;8.530;2022-11-04T00:25:41;11.40;99.90
46336;DHT22;31365;48.858;8.530;2022-11-04T00:28:27;11.40;99.90
46336;DHT22;31365;48.858;8.530;2022-11-04T00:31:12;11.30;99.90
46336;DHT22;31365;48.858;8.530;2022-11-04T00:33:58;11.30;99.90
46336;DHT22;31365;48.858;8.530;2022-11-04T00:36:27;11.30;99.90
46336;DHT22;31365;48.858;8.530;2022-11-04T00:38:55;11.20;99.90
46336;DHT22;31365;48.858;8.530;2022-11-04T00:41:24;11.30;99.90
46336;DHT22;31365;48.858;8.530;2022-11-04T00:43:54;11.20;99.90
46336;DHT22;31365;48.858;8.530;2022-11-04T00:46:26;11.10;99.90
46336;DHT22;31365;48.858;8.530;2022-11-04T00:48:55;11.20;99.90
46336;DHT22;31365;48.858;8.530;2022-11-04T00:51:24;11.20;99.90
46336;DHT22;31365;48.858;8.530;2022-11-04T00:53:53;11.10;99.90
46336;DHT22;31365;48.858;8.530;2022-11-04T00:56:22;11.00;99.90
46336;DHT22;31365;48.858;8.530;2022-11-04T02:07:49;10.50;99.90
46336;DHT22;31365;48.858;8.530;2022-11-04T02:10:22;10.50;99.90
46336;DHT22;31365;48.858;8.530;2022-11-04T02:12:53;10.50;99.90
46336;DHT22;31365;48.858;8.530;2022-11-04T02:15:31;10.50;99.90
46336;DHT22;31365;48.858;8.530;2022-11-04T02:21:34;10.40;99.90
46336;DHT22;31365;48.858;8.530;2022-11-04T02:24:41;10.40;99.90
46336;DHT22;31365;48.858;8.530;2022-11-04T02:27:30;10.40;99.90
46336;DHT22;31365;48.858;8.530;2022-11-04T02:30:09;10.30;99.90
46336;DHT22;31365;48.858;8.530;2022-11-04T02:32:54;10.30;99.90
46336;DHT22;31365;48.858;8.530;2022-11-04T02:35:40;10.30;99.90
46336;DHT22;31365;48.858;8.530;2022-11-04T02:38:22;10.20;99.90
46336;DHT22;31365;48.858;8.530;2022-11-04T02:40:59;10.30;99.90
46336;DHT22;31365;48.858;8.530;2022-11-04T02:43:39;10.30;99.90
46336;DHT22;31365;48.858;8.530;2022-11-04T02:46:19;10.20;99.90
46336;DHT22;31365;48.858;8.530;2022-11-04T02:48:56;10.20;99.90
46336;DHT22;31365;48.858;8.530;2022-11-04T02:51:33;10.20;99.90
46336;DHT22;31365;48.858;8.530;2022-11-04T02:54:05;10.20;99.90
46336;DHT22;31365;48.858;8.530;2022-11-04T02:56:41;10.20;99.90
46336;DHT22;31365;48.858;8.530;2022-11-04T02:59:17;10.20;99.90
46336;DHT22;31365;48.858;8.530;2022-11-04T03:01:52;10.20;99.90
46336;DHT22;31365;48.858;8.530;2022-11-04T03:04:26;10.20;99.90
46336;DHT22;31365;48.858;8.530;2022-11-04T03:06:59;10.10;99.90
46336;DHT22;31365;48.858;8.530;2022-11-04T03:09:32;10.10;99.90
46336;DHT22;31365;48.858;8.530;2022-11-04T03:12:08;10.10;99.90
46336;DHT22;31365;48.858;8.530;2022-11-04T03:14:43;10.10;99.90
46336;DHT22;31365;48.858;8.530;2022-11-04T03:17:21;10.10;99.90
46336;DHT22;31365;48.858;8.530;2022-11-04T03:19:58;10.10;99.90
46336;DHT22;31365;48.858;8.530;2022-11-04T03:22:28;10.10;99.90
46336;DHT22;31365;48.858;8.530;2022-11-04T03:25:00;10.10;99.90
46336;DHT22;31365;48.858;8.530;2022-11-04T03:27:34;10.10;99.90
46336;DHT22;31365;48.858;8.530;2022-11-04T03:30:11;10.10;99.90
46336;DHT22;31365;48.858;8.530;2022-11-04T03:32:52;10.00;99.90
46336;DHT22;31365;48.858;8.530;2022-11-04T03:35:28;10.00;99.90
46336;DHT22;31365;48.858;8.530;2022-11-04T03:37:58;9.90;99.90
46336;DHT22;31365;48.858;8.530;2022-11-04T03:40:27;10.00;99.90
46336;DHT22;31365;48.858;8.530;2022-11-04T03:42:58;9.90;99.90
46336;DHT22;31365;48.858;8.530;2022-11-04T03:45:30;9.90;99.90
46336;DHT22;31365;48.858;8.530;2022-11-04T03:48:00;10.00;99.90
46336;DHT22;31365;48.858;8.530;2022-11-04T03:50:30;10.00;99.90
46336;DHT22;31365;48.858;8.530;2022-11-04T03:53:01;10.00;99.90
46336;DHT22;31365;48.858;8.530;2022-11-04T03:55:38;10.00;99.90
46336;DHT22;31365;48.858;8.530;2022-11-04T03:58:23;10.00;99.90
46336;DHT22;31365;48.858;8.530;2022-11-04T04:01:02;10.00;99.90
46336;DHT22;31365;48.858;8.530;2022-11-04T04:03:49;10.00;99.90
46336;DHT22;31365;48.858;8.530;2022-11-04T04:06:27;10.00;99.90
46336;DHT22;31365;48.858;8.530;2022-11-04T04:09:01;10.00;99.90
46336;DHT22;31365;48.858;8.530;2022-11-04T04:11:41;10.00;99.90
46336;DHT22;31365;48.858;8.530;2022-11-04T04:14:21;10.00;99.90
46336;DHT22;31365;48.858;8.530;2022-11-04T04:17:16;10.00;99.90
46336;DHT22;31365;48.858;8.530;2022-11-04T04:19:51;10.00;99.90
46336;DHT22;31365;48.858;8.530;2022-11-04T04:22:25;10.00;99.90
46336;DHT22;31365;48.858;8.530;2022-11-04T04:25:00;10.00;99.90
46336;DHT22;31365;48.858;8.530;2022-11-04T04:27:48;10.00;99.90
46336;DHT22;31365;48.858;8.530;2022-11-04T04:30:20;9.90;99.90
46336;DHT22;31365;48.858;8.530;2022-11-04T04:32:51;9.90;99.90
46336;DHT22;31365;48.858;8.530;2022-11-04T04:35:26;10.00;99.90
46336;DHT22;31365;48.858;8.530;2022-11-04T04:38:16;10.00;99.90
46336;DHT22;31365;48.858;8.530;2022-11-04T04:41:08;9.90;99.90
46336;DHT22;31365;48.858;8.530;2022-11-04T04:43:57;9.90;99.90
46336;DHT22;31365;48.858;8.530;2022-11-04T04:46:44;9.80;99.90
46336;DHT22;31365;48.858;8.530;2022-11-04T04:49:17;9.80;99.90
46336;DHT22;31365;48.858;8.530;2022-11-04T04:51:47;9.80;99.90
46336;DHT22;31365;48.858;8.530;2022-11-04T04:54:16;9.80;99.90
46336;DHT22;31365;48.858;8.530;2022-11-04T04:56:45;9.80;99.90
46336;DHT22;31365;48.858;8.530;2022-11-04T04:59:13;9.80;99.90
46336;DHT22;31365;48.858;8.530;2022-11-04T05:01:42;9.80;99.90
46336;DHT22;31365;48.858;8.530;2022-11-04T05:04:10;9.70;99.90
46336;DHT22;31365;48.858;8.530;2022-11-04T05:06:38;9.80;99.90
46336;DHT22;31365;48.858;8.530;2022-11-04T05:09:09;9.80;99.90
46336;DHT22;31365;48.858;8.530;2022-11-04T05:11:37;9.70;99.90
46336;DHT22;31365;48.858;8.530;2022-11-04T05:14:06;9.70;99.90
46336;DHT22;31365;48.858;8.530;2022-11-04T05:16:34;9.80;99.90
46336;DHT22;31365;48.858;8.530;2022-11-04T05:19:07;9.80;99.90
46336;DHT22;31365;48.858;8.530;2022-11-04T05:21:35;9.70;99.90
46336;DHT22;31365;48.858;8.530;2022-11-04T05:24:04;9.70;99.90
46336;DHT22;31365;48.858;8.530;2022-11-04T05:26:34;9.80;99.90
46336;DHT22;31365;48.858;8.530;2022-11-04T05:29:02;9.80;99.90
46336;DHT22;31365;48.858;8.530;2022-11-04T05:31:32;9.70;99.90
46336;DHT22;31365;48.858;8.530;2022-11-04T05:34:00;9.80;99.90
46336;DHT22;31365;48.858;8.530;2022-11-04T05:36:28;9.80;99.90
46336;DHT22;31365;48.858;8.530;2022-11-04T05:38:58;9.80;99.90
46336;DHT22;31365;48.858;8.530;2022-11-04T05:41:27;9.70;99.90
46336;DHT22;31365;48.858;8.530;2022-11-04T05:43:59;9.80;99.90
46336;DHT22;31365;48.858;8.530;2022-11-04T05:46:30;9.70;99.90
46336;DHT22;31365;48.858;8.530;2022-11-04T05:48:58;9.70;99.90
46336;DHT22;31365;48.858;8.530;2022-11-04T05:51:27;9.80;99.90
46336;DHT22;31365;48.858;8.530;2022-11-04T05:53:56;9.80;99.90
46336;DHT22;31365;48.858;8.530;2022-11-04T05:56:24;9.80;99.90
46336;DHT22;31365;48.858;8.530;2022-11-04T05:58:53;9.70;99.90
46336;DHT22;31365;48.858;8.530;2022-11-04T06:01:26;9.70;99.90
46336;DHT22;31365;48.858;8.530;2022-11-04T06:03:59;9.70;99.90
46336;DHT22;31365;48.858;8.530;2022-11-04T06:06:31;9.70;99.90
46336;DHT22;31365;48.858;8.530;2022-11-04T06:09:02;9.60;99.90
46336;DHT22;31365;48.858;8.530;2022-11-04T06:11:32;9.60;99.90
46336;DHT22;31365;48.858;8.530;2022-11-04T06:14:04;9.60;99.90
46336;DHT22;31365;48.858;8.530;2022-11-04T06:16:34;9.60;99.90
46336;DHT22;31365;48.858;8.530;2022-11-04T06:19:02;9.60;99.90
46336;DHT22;31365;48.858;8.530;2022-11-04T06:21:36;9.60;99.90
46336;DHT22;31365;48.858;8.530;2022-11-04T06:24:07;9.50;99.90
46336;DHT22;31365;48.858;8.530;2022-11-04T06:26:35;9.60;99.90
46336;DHT22;31365;48.858;8.530;2022-11-04T06:29:05;9.60;99.90
46336;DHT22;31365;48.858;8.530;2022-11-04T06:31:37;9.60;99.90
46336;DHT22;31365;48.858;8.530;2022-11-04T06:34:05;9.60;99.90
46336;DHT22;31365;48.858;8.530;2022-11-04T06:36:34;9.60;99.90
46336;DHT22;31365;48.858;8.530;2022-11-04T06:39:03;9.60;99.90
46336;DHT22;31365;48.858;8.530;2022-11-04T06:41:31;9.60;99.90
46336;DHT22;31365;48.858;8.530;2022-11-04T06:44:00;9.70;99.90
46336;DHT22;31365;48.858;8.530;2022-11-04T06:46:33;9.70;99.90
46336;DHT22;31365;48.858;8.530;2022-11-04T06:49:06;9.70;99.90
46336;DHT22;31365;48.858;8.530;2022-11-04T06:51:38;9.70;99.90
46336;DHT22;31365;48.858;8.530;2022-11-04T06:54:07;9.70;99.90
46336;DHT22;31365;48.858;8.530;2022-11-04T06:56:36;9.70;99.90
46336;DHT22;31365;48.858;8.530;2022-11-04T06:59:04;9.80;99.90
46336;DHT22;31365;48.858;8.530;2022-11-04T07:01:34;9.80;99.90
46336;DHT22;31365;48.858;8.530;2022-11-04T07:04:05;9.80;99.90
46336;DHT22;31365;48.858;8.530;2022-11-04T07:06:34;9.90;99.90
46336;DHT22;31365;48.858;8.530;2022-11-04T07:09:09;9.90;99.90
46336;DHT22;31365;48.858;8.530;2022-11-04T07:11:39;9.90;99.90
46336;DHT22;31365;48.858;8.530;2022-11-04T07:14:09;9.90;99.90
46336;DHT22;31365;48.858;8.530;2022-11-04T07:16:38;10.00;99.90
46336;DHT22;31365;48.858;8.530;2022-11-04T07:19:08;10.10;99.90
46336;DHT22;31365;48.858;8.530;2022-11-04T07:21:36;10.00;99.90
46336;DHT22;31365;48.858;8.530;2022-11-04T07:24:05;10.10;99.90
46336;DHT22;31365;48.858;8.530;2022-11-04T07:26:34;10.20;99.90
46336;DHT22;31365;48.858;8.530;2022-11-04T07:29:03;10.20;99.90
46336;DHT22;31365;48.858;8.530;2022-11-04T07:31:33;10.20;99.90
46336;DHT22;31365;48.858;8.530;2022-11-04T07:34:01;10.30;99.90
46336;DHT22;31365;48.858;8.530;2022-11-04T07:36:31;10.30;99.90
46336;DHT22;31365;48.858;8.530;2022-11-04T07:38:59;10.30;99.90
46336;DHT22;31365;48.858;8.530;2022-11-04T07:41:29;10.40;99.90
46336;DHT22;31365;48.858;8.530;2022-11-04T07:43:57;10.50;99.90
46336;DHT22;31365;48.858;8.530;2022-11-04T07:46:26;10.40;99.90
46336;DHT22;31365;48.858;8.530;2022-11-04T07:48:56;10.50;99.90
46336;DHT22;31365;48.858;8.530;2022-11-04T07:51:25;10.60;99.90
46336;DHT22;31365;48.858;8.530;2022-11-04T07:53:55;10.70;99.90
46336;DHT22;31365;48.858;8.530;2022-11-04T07:56:24;10.80;99.90
46336;DHT22;31365;48.858;8.530;2022-11-04T07:58:53;10.90;99.90
46336;DHT22;31365;48.858;8.530;2022-11-04T08:01:23;10.90;99.90
46336;DHT22;31365;48.858;8.530;2022-11-04T08:03:52;11.10;99.90
46336;DHT22;31365;48.858;8.530;2022-11-04T08:06:20;11.20;99.90
46336;DHT22;31365;48.858;8.530;2022-11-04T08:08:49;11.30;99.90
46336;DHT22;31365;48.858;8.530;2022-11-04T08:11:22;11.20;99.90
46336;DHT22;31365;48.858;8.530;2022-11-04T08:13:54;11.30;99.90
46336;DHT22;31365;48.858;8.530;2022-11-04T08:16:24;11.30;99.90
46336;DHT22;31365;48.858;8.530;2022-11-04T08:19:00;11.40;99.90
46336;DHT22;31365;48.858;8.530;2022-11-04T08:21:29;11.40;99.90
46336;DHT22;31365;48.858;8.530;2022-11-04T08:24:00;11.50;99.90
46336;DHT22;31365;48.858;8.530;2022-11-04T08:26:32;11.50;99.90
46336;DHT22;31365;48.858;8.530;2022-11-04T08:29:04;11.60;99.90
46336;DHT22;31365;48.858;8.530;2022-11-04T08:31:34;11.70;99.90
46336;DHT22;31365;48.858;8.530;2022-11-04T08:34:03;11.80;99.90
46336;DHT22;31365;48.858;8.530;2022-11-04T08:36:33;11.80;99.90
46336;DHT22;31365;48.858;8.530;2022-11-04T08:39:04;11.80;99.90
46336;DHT22;31365;48.858;8.530;2022-11-04T08:41:40;11.90;99.90
46336;DHT22;31365;48.858;8.530;2022-11-04T08:44:12;11.90;99.90
46336;DHT22;31365;48.858;8.530;2022-11-04T08:46:42;11.90;99.90
46336;DHT22;31365;48.858;8.530;2022-11-04T08:49:13;12.00;99.90
46336;DHT22;31365;48.858;8.530;2022-11-04T08:51:47;12.10;99.90
46336;DHT22;31365;48.858;8.530;2022-11-04T08:54:22;12.00;99.90
46336;DHT22;31365;48.858;8.530;2022-11-04T08:56:52;12.00;99.90
46336;DHT22;31365;48.858;8.530;2022-11-04T08:59:21;12.10;99.90
46336;DHT22;31365;48.858;8.530;2022-11-04T09:01:51;12.20;99.90
46336;DHT22;31365;48.858;8.530;2022-11-04T09:04:19;12.30;99.90
46336;DHT22;31365;48.858;8.530;2022-11-04T09:06:48;12.30;99.90
46336;DHT22;31365;48.858;8.530;2022-11-04T09:09:18;12.30;99.90
46336;DHT22;31365;48.858;8.530;2022-11-04T09:11:46;12.30;99.90
46336;DHT22;31365;48.858;8.530;2022-11-04T09:14:16;12.30;99.90
46336;DHT22;31365;48.858;8.530;2022-11-04T09:16:44;12.50;99.90
46336;DHT22;31365;48.858;8.530;2022-11-04T09:19:13;12.50;99.90
46336;DHT22;31365;48.858;8.530;2022-11-04T09:21:42;12.60;99.90
46336;DHT22;31365;48.858;8.530;2022-11-04T09:24:10;12.60;99.90
46336;DHT22;31365;48.858;8.530;2022-11-04T09:26:38;12.70;99.90
46336;DHT22;31365;48.858;8.530;2022-11-04T09:29:07;12.90;99.90
46336;DHT22;31365;48.858;8.530;2022-11-04T09:31:37;12.90;99.90
46336;DHT22;31365;48.858;8.530;2022-11-04T09:34:06;12.80;99.90
46336;DHT22;31365;48.858;8.530;2022-11-04T09:36:35;12.90;99.90
46336;DHT22;31365;48.858;8.530;2022-11-04T09:39:03;13.00;99.90
46336;DHT22;31365;48.858;8.530;2022-11-04T09:41:53;13.00;99.90
46336;DHT22;31365;48.858;8.530;2022-11-04T09:44:32;13.00;99.90
46336;DHT22;31365;48.858;8.530;2022-11-04T09:47:34;13.00;99.90
46336;DHT22;31365;48.858;8.530;2022-11-04T09:50:09;13.10;99.90
46336;DHT22;31365;48.858;8.530;2022-11-04T09:52:45;13.10;99.90
46336;DHT22;31365;48.858;8.530;2022-11-04T09:55:25;13.20;99.90
46336;DHT22;31365;48.858;8.530;2022-11-04T09:57:59;13.40;99.90
46336;DHT22;31365;48.858;8.530;2022-11-04T10:00:31;13.50;99.90
46336;DHT22;31365;48.858;8.530;2022-11-04T10:03:17;13.60;99.90
46336;DHT22;31365;48.858;8.530;2022-11-04T10:05:59;13.70;99.90
46336;DHT22;31365;48.858;8.530;2022-11-04T10:09:01;13.80;99.90
46336;DHT22;31365;48.858;8.530;2022-11-04T10:11:51;13.80;99.90
46336;DHT22;31365;48.858;8.530;2022-11-04T10:14:44;13.90;99.90
46336;DHT22;31365;48.858;8.530;2022-11-04T10:17:33;14.00;99.90
46336;DHT22;31365;48.858;8.530;2022-11-04T10:20:23;14.10;99.90
46336;DHT22;31365;48.858;8.530;2022-11-04T10:23:17;14.10;99.90
46336;DHT22;31365;48.858;8.530;2022-11-04T10:25:52;14.20;99.90
46336;DHT22;31365;48.858;8.530;2022-11-04T10:28:32;14.10;99.90
46336;DHT22;31365;48.858;8.530;2022-11-04T10:31:06;14.10;99.90
46336;DHT22;31365;48.858;8.530;2022-11-04T10:33:44;14.00;99.90
46336;DHT22;31365;48.858;8.530;2022-11-04T10:36:16;13.90;99.90
46336;DHT22;31365;48.858;8.530;2022-11-04T10:38:47;13.70;99.90
46336;DHT22;31365;48.858;8.530;2022-11-04T10:41:25;13.80;99.90
46336;DHT22;31365;48.858;8.530;2022-11-04T10:44:00;13.70;99.90
46336;DHT22;31365;48.858;8.530;2022-11-04T10:46:43;13.70;99.90
46336;DHT22;31365;48.858;8.530;2022-11-04T10:49:48;13.60;99.90
46336;DHT22;31365;48.858;8.530;2022-11-04T10:52:40;13.60;99.90
46336;DHT22;31365;48.858;8.530;2022-11-04T10:55:14;13.40;99.90
46336;DHT22;31365;48.858;8.530;2022-11-04T10:57:56;13.50;99.90
46336;DHT22;31365;48.858;8.530;2022-11-04T11:00:37;13.50;99.90
46336;DHT22;31365;48.858;8.530;2022-11-04T11:03:26;13.60;99.90
46336;DHT22;31365;48.858;8.530;2022-11-04T11:06:14;13.80;99.90
46336;DHT22;31365;48.858;8.530;2022-11-04T11:08:50;14.00;99.90
46336;DHT22;31365;48.858;8.530;2022-11-04T11:11:38;14.20;99.90
46336;DHT22;31365;48.858;8.530;2022-11-04T11:14:19;14.60;99.90
46336;DHT22;31365;48.858;8.530;2022-11-04T11:17:23;14.90;99.90
46336;DHT22;31365;48.858;8.530;2022-11-04T11:20:14;15.10;99.90
46336;DHT22;31365;48.858;8.530;2022-11-04T11:22:47;15.20;99.90
46336;DHT22;31365;48.858;8.530;2022-11-04T11:25:25;15.30;99.90
46336;DHT22;31365;48.858;8.530;2022-11-04T11:27:56;15.20;99.90
46336;DHT22;31365;48.858;8.530;2022-11-04T11:30:29;15.20;99.90
46336;DHT22;31365;48.858;8.530;2022-11-04T11:33:02;15.20;99.90
46336;DHT22;31365;48.858;8.530;2022-11-04T11:35:36;15.10;99.90
46336;DHT22;31365;48.858;8.530;2022-11-04T11:38:20;15.10;99.90
46336;DHT22;31365;48.858;8.530;2022-11-04T11:41:01;15.10;99.90
46336;DHT22;31365;48.858;8.530;2022-11-04T11:43:54;15.10;99.90
46336;DHT22;31365;48.858;8.530;2022-11-04T11:46:25;14.90;99.90
46336;DHT22;31365;48.858;8.530;2022-11-04T11:48:57;14.80;99.90
46336;DHT22;31365;48.858;8.530;2022-11-04T11:51:31;14.80;99.90
46336;DHT22;31365;48.858;8.530;2022-11-04T11:54:15;14.90;99.90
46336;DHT22;31365;48.858;8.530;2022-11-04T11:56:53;15.00;99.90
46336;DHT22;31365;48.858;8.530;2022-11-04T11:59:44;15.10;99.90
46336;DHT22;31365;48.858;8.530;2022-11-04T12:02:44;15.10;99.90
46336;DHT22;31365;48.858;8.530;2022-11-04T12:05:25;15.10;99.90
46336;DHT22;31365;48.858;8.530;2022-11-04T12:08:32;15.00;99.90
46336;DHT22;31365;48.858;8.530;2022-11-04T12:11:37;15.00;99.90
46336;DHT22;31365;48.858;8.530;2022-11-04T12:14:17;15.80;99.90
46336;DHT22;31365;48.858;8.530;2022-11-04T12:16:59;16.30;99.90
46336;DHT22;31365;48.858;8.530;2022-11-04T12:19:50;16.40;99.90
46336;DHT22;31365;48.858;8.530;2022-11-04T12:22:38;16.10;99.90
46336;DHT22;31365;48.858;8.530;2022-11-04T12:25:19;15.80;99.90
46336;DHT22;31365;48.858;8.530;2022-11-04T12:28:03;15.40;99.90
46336;DHT22;31365;48.858;8.530;2022-11-04T12:30:49;15.30;99.90
46336;DHT22;31365;48.858;8.530;2022-11-04T12:33:36;15.10;99.90
46336;DHT22;31365;48.858;8.530;2022-11-04T12:36:24;15.10;99.90
46336;DHT22;31365;48.858;8.530;2022-11-04T12:39:17;14.90;99.90
46336;DHT22;31365;48.858;8.530;2022-11-04T12:42:05;14.90;99.90
46336;DHT22;31365;48.858;8.530;2022-11-04T12:45:01;14.70;99.90
46336;DHT22;31365;48.858;8.530;2022-11-04T12:47:45;14.70;99.90
46336;DHT22;31365;48.858;8.530;2022-11-04T12:50:28;14.70;99.90
46336;DHT22;31365;48.858;8.530;2022-11-04T12:53:30;14.70;99.90
46336;DHT22;31365;48.858;8.530;2022-11-04T12:56:22;14.60;99.90
46336;DHT22;31365;48.858;8.530;2022-11-04T12:59:37;14.50;99.90
46336;DHT22;31365;48.858;8.530;2022-11-04T13:02:18;14.50;99.90
46336;DHT22;31365;48.858;8.530;2022-11-04T13:04:55;14.40;99.90
46336;DHT22;31365;48.858;8.530;2022-11-04T13:07:32;14.40;99.90
46336;DHT22;31365;48.858;8.530;2022-11-04T13:10:10;14.30;99.90
46336;DHT22;31365;48.858;8.530;2022-11-04T13:12:48;14.30;99.90
46336;DHT22;31365;48.858;8.530;2022-11-04T13:15:23;14.30;99.90
46336;DHT22;31365;48.858;8.530;2022-11-04T13:17:57;14.20;99.90
46336;DHT22;31365;48.858;8.530;2022-11-04T13:20:38;14.10;99.90
46336;DHT22;31365;48.858;8.530;2022-11-04T13:23:16;14.10;99.90
46336;DHT22;31365;48.858;8.530;2022-11-04T13:25:51;14.20;99.90
46336;DHT22;31365;48.858;8.530;2022-11-04T13:28:21;14.10;99.90
46336;DHT22;31365;48.858;8.530;2022-11-04T13:30:57;14.10;99.90
46336;DHT22;31365;48.858;8.530;2022-11-04T13:33:36;14.30;99.90
46336;DHT22;31365;48.858;8.530;2022-11-04T13:36:26;14.40;99.90
46336;DHT22;31365;48.858;8.530;2022-11-04T13:39:07;14.80;99.90
46336;DHT22;31365;48.858;8.530;2022-11-04T13:42:12;15.00;99.90
46336;DHT22;31365;48.858;8.530;2022-11-04T13:44:53;15.10;99.90
46336;DHT22;31365;48.858;8.530;2022-11-04T13:47:28;15.10;99.90
46336;DHT22;31365;48.858;8.530;2022-11-04T13:50:03;14.90;99.90
46336;DHT22;31365;48.858;8.530;2022-11-04T13:52:47;14.60;99.90
46336;DHT22;31365;48.858;8.530;2022-11-04T13:55:19;14.40;99.90
46336;DHT22;31365;48.858;8.530;2022-11-04T13:57:51;14.30;99.90
46336;DHT22;31365;48.858;8.530;2022-11-04T14:00:23;14.20;99.90
46336;DHT22;31365;48.858;8.530;2022-11-04T14:02:53;14.20;99.90
46336;DHT22;31365;48.858;8.530;2022-11-04T14:06:00;14.10;99.90
46336;DHT22;31365;48.858;8.530;2022-11-04T14:08:34;14.00;99.90
46336;DHT22;31365;48.858;8.530;2022-11-04T14:11:08;13.90;99.90
46336;DHT22;31365;48.858;8.530;2022-11-04T14:13:45;13.70;99.90
46336;DHT22;31365;48.858;8.530;2022-11-04T14:16:40;13.60;99.90
46336;DHT22;31365;48.858;8.530;2022-11-04T14:22:36;13.50;99.90
46336;DHT22;31365;48.858;8.530;2022-11-04T14:25:27;13.50;99.90
46336;DHT22;31365;48.858;8.530;2022-11-04T14:28:02;13.50;99.90
46336;DHT22;31365;48.858;8.530;2022-11-04T14:30:50;13.40;99.90
46336;DHT22;31365;48.858;8.530;2022-11-04T14:33:30;13.30;99.90
46336;DHT22;31365;48.858;8.530;2022-11-04T14:36:21;13.30;99.90
46336;DHT22;31365;48.858;8.530;2022-11-04T14:38:55;13.30;99.90
46336;DHT22;31365;48.858;8.530;2022-11-04T14:41:49;13.10;99.90
46336;DHT22;31365;48.858;8.530;2022-11-04T14:44:28;13.10;99.90
46336;DHT22;31365;48.858;8.530;2022-11-04T14:47:01;13.00;99.90
46336;DHT22;31365;48.858;8.530;2022-11-04T14:49:43;13.10;99.90
46336;DHT22;31365;48.858;8.530;2022-11-04T14:52:19;13.10;99.90
46336;DHT22;31365;48.858;8.530;2022-11-04T14:54:55;13.30;99.90
46336;DHT22;31365;48.858;8.530;2022-11-04T14:57:35;13.20;99.90
46336;DHT22;31365;48.858;8.530;2022-11-04T15:00:19;13.20;99.90
46336;DHT22;31365;48.858;8.530;2022-11-04T15:03:05;13.10;99.90
46336;DHT22;31365;48.858;8.530;2022-11-04T15:06:01;13.00;99.90
46336;DHT22;31365;48.858;8.530;2022-11-04T15:08:34;13.00;99.90
46336;DHT22;31365;48.858;8.530;2022-11-04T15:11:07;13.00;99.90
46336;DHT22;31365;48.858;8.530;2022-11-04T15:13:46;13.00;99.90
46336;DHT22;31365;48.858;8.530;2022-11-04T15:16:18;13.00;99.90
46336;DHT22;31365;48.858;8.530;2022-11-04T15:18:50;12.90;99.90
46336;DHT22;31365;48.858;8.530;2022-11-04T15:21:20;12.90;99.90
46336;DHT22;31365;48.858;8.530;2022-11-04T15:23:51;12.90;99.90
46336;DHT22;31365;48.858;8.530;2022-11-04T15:26:23;12.90;99.90
46336;DHT22;31365;48.858;8.530;2022-11-04T15:28:58;12.80;99.90
46336;DHT22;31365;48.858;8.530;2022-11-04T15:31:30;12.80;99.90
46336;DHT22;31365;48.858;8.530;2022-11-04T15:34:02;12.80;99.90
46336;DHT22;31365;48.858;8.530;2022-11-04T15:36:41;12.70;99.90
46336;DHT22;31365;48.858;8.530;2022-11-04T15:39:14;12.70;99.90
46336;DHT22;31365;48.858;8.530;2022-11-04T15:46:19;12.50;99.90
46336;DHT22;31365;48.858;8.530;2022-11-04T15:49:03;12.40;99.90
46336;DHT22;31365;48.858;8.530;2022-11-04T15:51:36;12.30;99.90
46336;DHT22;31365;48.858;8.530;2022-11-04T15:54:17;12.30;99.90
46336;DHT22;31365;48.858;8.530;2022-11-04T15:56:51;12.20;99.90
46336;DHT22;31365;48.858;8.530;2022-11-04T15:59:24;12.20;99.90
46336;DHT22;31365;48.858;8.530;2022-11-04T16:01:58;12.10;99.90
46336;DHT22;31365;48.858;8.530;2022-11-04T16:04:28;12.10;99.90
46336;DHT22;31365;48.858;8.530;2022-11-04T16:07:19;12.00;99.90
46336;DHT22;31365;48.858;8.530;2022-11-04T16:09:51;12.00;99.90
46336;DHT22;31365;48.858;8.530;2022-11-04T16:12:26;12.00;99.90
46336;DHT22;31365;48.858;8.530;2022-11-04T16:14:57;12.00;99.90
46336;DHT22;31365;48.858;8.530;2022-11-04T16:17:28;11.90;99.90
46336;DHT22;31365;48.858;8.530;2022-11-04T16:20:00;11.90;99.90
46336;DHT22;31365;48.858;8.530;2022-11-04T16:22:33;11.80;99.90
46336;DHT22;31365;48.858;8.530;2022-11-04T16:25:07;11.80;99.90
46336;DHT22;31365;48.858;8.530;2022-11-04T16:27:46;11.80;99.90
46336;DHT22;31365;48.858;8.530;2022-11-04T16:30:17;11.80;99.90
46336;DHT22;31365;48.858;8.530;2022-11-04T16:32:49;11.80;99.90
46336;DHT22;31365;48.858;8.530;2022-11-04T16:35:21;11.80;99.90
46336;DHT22;31365;48.858;8.530;2022-11-04T16:37:52;11.70;99.90
46336;DHT22;31365;48.858;8.530;2022-11-04T16:40:22;11.70;99.90
46336;DHT22;31365;48.858;8.530;2022-11-04T16:42:52;11.80;99.90
46336;DHT22;31365;48.858;8.530;2022-11-04T16:45:25;11.80;99.90
46336;DHT22;31365;48.858;8.530;2022-11-04T16:47:57;11.80;99.90
46336;DHT22;31365;48.858;8.530;2022-11-04T16:50:26;11.80;99.90
46336;DHT22;31365;48.858;8.530;2022-11-04T16:52:55;11.80;99.90
46336;DHT22;31365;48.858;8.530;2022-11-04T16:55:24;11.70;99.90
46336;DHT22;31365;48.858;8.530;2022-11-04T16:57:57;11.80;99.90
46336;DHT22;31365;48.858;8.530;2022-11-04T17:00:29;11.60;99.90
46336;DHT22;31365;48.858;8.530;2022-11-04T17:03:01;11.50;99.90
46336;DHT22;31365;48.858;8.530;2022-11-04T17:05:39;11.40;99.90
46336;DHT22;31365;48.858;8.530;2022-11-04T17:08:08;11.40;99.90
46336;DHT22;31365;48.858;8.530;2022-11-04T17:10:37;11.30;99.90
46336;DHT22;31365;48.858;8.530;2022-11-04T17:13:07;11.30;99.90
46336;DHT22;31365;48.858;8.530;2022-11-04T17:15:37;11.30;99.90
46336;DHT22;31365;48.858;8.530;2022-11-04T17:18:08;11.20;99.90
46336;DHT22;31365;48.858;8.530;2022-11-04T17:20:39;11.20;99.90
46336;DHT22;31365;48.858;8.530;2022-11-04T17:23:10;11.20;99.90
46336;DHT22;31365;48.858;8.530;2022-11-04T17:25:41;11.30;99.90
46336;DHT22;31365;48.858;8.530;2022-11-04T17:28:10;11.30;99.90
46336;DHT22;31365;48.858;8.530;2022-11-04T17:30:40;11.30;99.90
46336;DHT22;31365;48.858;8.530;2022-11-04T17:33:13;11.30;99.90
46336;DHT22;31365;48.858;8.530;2022-11-04T17:35:44;11.30;99.90
46336;DHT22;31365;48.858;8.530;2022-11-04T17:38:18;11.30;99.90
46336;DHT22;31365;48.858;8.530;2022-11-04T17:40:46;11.30;99.90
46336;DHT22;31365;48.858;8.530;2022-11-04T17:43:35;11.30;99.90
46336;DHT22;31365;48.858;8.530;2022-11-04T17:46:21;11.30;99.90
46336;DHT22;31365;48.858;8.530;2022-11-04T17:49:08;11.30;99.90